createdAt,value
2018-12-16T00:01:36.394Z,0.30
2018-12-16T00:04:07.266Z,0.30
2018-12-16T00:06:38.044Z,0.30
2018-12-16T00:09:07.602Z,0.30
2018-12-16T00:11:38.461Z,0.30
2018-12-16T00:14:07.397Z,0.30
2018-12-16T00:16:36.254Z,0.30
2018-12-16T00:19:05.104Z,0.20
2018-12-16T00:23:03.829Z,0.20
2018-12-16T00:25:32.824Z,0.30
2018-12-16T00:28:01.668Z,0.20
2018-12-16T00:30:30.546Z,0.20
2018-12-16T00:32:59.472Z,0.20
2018-12-16T00:35:28.636Z,0.20
2018-12-16T00:37:57.526Z,0.20
2018-12-16T00:40:26.349Z,0.20
2018-12-16T00:42:55.288Z,0.20
2018-12-16T00:45:24.096Z,0.30
2018-12-16T00:47:52.914Z,0.30
2018-12-16T00:50:21.709Z,0.40
2018-12-16T00:52:50.563Z,0.40
2018-12-16T00:55:19.369Z,0.50
2018-12-16T00:57:48.248Z,0.50
2018-12-16T01:00:17.485Z,0.60
2018-12-16T01:02:46.347Z,0.60
2018-12-16T01:05:15.652Z,0.60
2018-12-16T01:07:44.535Z,0.60
2018-12-16T01:10:13.533Z,0.50
2018-12-16T01:12:42.323Z,0.50
2018-12-16T01:15:11.222Z,0.50
2018-12-16T01:17:40.039Z,0.50
2018-12-16T01:20:09.347Z,0.50
2018-12-16T01:22:43.408Z,0.50
2018-12-16T01:25:09.330Z,0.50
2018-12-16T01:27:38.191Z,0.50
2018-12-16T01:30:07.187Z,0.50
2018-12-16T01:32:36.531Z,0.50
2018-12-16T01:35:05.735Z,0.50
2018-12-16T01:37:34.568Z,0.50
2018-12-16T01:40:04.009Z,0.50
2018-12-16T01:42:32.819Z,0.50
2018-12-16T01:45:01.772Z,0.60
2018-12-16T01:47:30.745Z,0.60
2018-12-16T01:50:00.085Z,0.70
2018-12-16T01:52:28.881Z,0.70
2018-12-16T01:54:57.690Z,0.80
2018-12-16T01:57:26.497Z,0.90
2018-12-16T01:59:55.329Z,0.90
2018-12-16T02:02:24.136Z,0.90
2018-12-16T02:04:52.921Z,0.80
2018-12-16T02:07:21.819Z,0.80
2018-12-16T02:09:50.805Z,0.80
2018-12-16T02:12:19.607Z,0.80
2018-12-16T02:14:48.401Z,0.90
2018-12-16T02:17:18.301Z,0.90
2018-12-16T02:19:47.115Z,0.90
2018-12-16T02:22:15.919Z,0.90
2018-12-16T02:24:44.849Z,0.80
2018-12-16T02:27:13.719Z,0.90
2018-12-16T02:29:42.891Z,0.90
2018-12-16T02:32:11.689Z,0.90
2018-12-16T02:34:40.541Z,1.00
2018-12-16T02:37:09.455Z,1.00
2018-12-16T02:39:38.269Z,1.00
2018-12-16T02:42:07.098Z,1.00
2018-12-16T02:44:35.902Z,1.00
2018-12-16T02:47:05.787Z,1.00
2018-12-16T02:49:34.735Z,1.10
2018-12-16T02:52:03.615Z,1.10
2018-12-16T02:54:32.413Z,1.10
2018-12-16T02:57:02.119Z,1.10
2018-12-16T02:59:31.072Z,1.10
2018-12-16T03:01:59.952Z,1.10
2018-12-16T03:04:28.764Z,1.10
2018-12-16T03:06:57.554Z,1.10
2018-12-16T03:09:26.446Z,1.10
2018-12-16T03:11:55.246Z,1.10
2018-12-16T03:14:24.100Z,1.10
2018-12-16T03:16:52.905Z,1.10
2018-12-16T03:19:21.719Z,1.10
2018-12-16T03:21:50.534Z,1.10
2018-12-16T03:24:19.342Z,1.10
2018-12-16T03:26:48.987Z,1.10
2018-12-16T03:29:17.787Z,1.00
2018-12-16T03:31:46.620Z,1.00
2018-12-16T03:34:15.469Z,1.00
2018-12-16T03:36:44.277Z,1.00
2018-12-16T03:39:13.193Z,1.00
2018-12-16T03:41:42.122Z,1.00
2018-12-16T03:44:10.996Z,1.00
2018-12-16T03:46:39.852Z,1.00
2018-12-16T03:49:08.660Z,1.00
2018-12-16T03:51:37.488Z,1.00
2018-12-16T03:54:06.390Z,1.00
2018-12-16T03:56:35.168Z,1.00
2018-12-16T03:59:17.948Z,1.00
2018-12-16T04:01:52.293Z,1.00
2018-12-16T04:04:21.220Z,1.00
2018-12-16T04:06:50.082Z,1.00
2018-12-16T04:09:19.020Z,1.00
2018-12-16T04:11:47.841Z,1.00
2018-12-16T04:14:16.646Z,1.00
2018-12-16T04:16:47.409Z,0.90
2018-12-16T04:19:16.208Z,0.90
2018-12-16T04:21:45.011Z,0.90
2018-12-16T04:24:13.825Z,0.90
2018-12-16T04:26:42.645Z,0.90
2018-12-16T04:29:11.450Z,0.90
2018-12-16T04:31:40.247Z,0.80
2018-12-16T04:34:09.059Z,0.80
2018-12-16T04:36:37.914Z,0.80
2018-12-16T04:39:07.265Z,0.80
2018-12-16T04:41:37.266Z,0.70
2018-12-16T04:44:07.252Z,0.70
2018-12-16T04:46:36.167Z,0.60
2018-12-16T04:49:04.962Z,0.50
2018-12-16T04:51:33.789Z,0.40
2018-12-16T04:54:04.519Z,0.30
2018-12-16T04:56:33.329Z,0.30
2018-12-16T04:59:02.170Z,0.30
2018-12-16T05:01:31.369Z,0.30
2018-12-16T05:04:00.284Z,0.30
2018-12-16T05:06:29.081Z,0.30
2018-12-16T05:08:57.912Z,0.30
2018-12-16T05:11:26.741Z,0.30
2018-12-16T05:13:55.564Z,0.30
2018-12-16T05:16:24.472Z,0.40
2018-12-16T05:18:53.337Z,0.40
2018-12-16T05:21:22.143Z,0.40
2018-12-16T05:23:51.011Z,0.30
2018-12-16T05:26:19.802Z,0.20
2018-12-16T05:28:48.595Z,0.20
2018-12-16T05:31:17.397Z,0.20
2018-12-16T05:33:46.221Z,0.20
2018-12-16T05:36:15.060Z,0.10
2018-12-16T05:38:43.851Z,0.10
2018-12-16T05:41:12.643Z,0.10
2018-12-16T05:43:41.475Z,0.00
2018-12-16T05:46:10.261Z,0.00
2018-12-16T05:48:39.075Z,0.00
2018-12-16T05:51:07.891Z,0.10
2018-12-16T05:53:36.695Z,0.10
2018-12-16T05:56:05.591Z,0.20
2018-12-16T05:58:34.359Z,0.30
2018-12-16T06:01:03.222Z,0.20
2018-12-16T06:03:32.073Z,0.20
2018-12-16T06:06:00.886Z,0.10
2018-12-16T06:08:29.673Z,0.10
2018-12-16T06:10:58.487Z,0.10
2018-12-16T06:13:27.299Z,0.20
2018-12-16T06:15:56.178Z,0.30
2018-12-16T06:18:25.003Z,0.30
2018-12-16T06:20:53.803Z,0.40
2018-12-16T06:23:22.633Z,0.50
2018-12-16T06:25:51.419Z,0.50
2018-12-16T06:28:20.220Z,0.60
2018-12-16T06:30:49.470Z,0.60
2018-12-16T06:33:18.315Z,0.60
2018-12-16T06:35:47.137Z,0.70
2018-12-16T06:38:15.951Z,0.70
2018-12-16T06:40:44.791Z,0.70
2018-12-16T06:43:13.585Z,0.70
2018-12-16T06:45:42.474Z,0.70
2018-12-16T06:48:11.267Z,0.70
2018-12-16T06:50:40.217Z,0.60
2018-12-16T06:53:09.023Z,0.60
2018-12-16T06:55:43.214Z,0.60
2018-12-16T06:58:08.834Z,0.50
2018-12-16T07:00:37.631Z,0.60
2018-12-16T07:03:06.442Z,0.60
2018-12-16T07:05:35.321Z,0.60
2018-12-16T07:08:04.218Z,0.60
2018-12-16T07:10:33.008Z,0.60
2018-12-16T07:13:01.821Z,0.60
2018-12-16T07:15:30.649Z,0.70
2018-12-16T07:17:59.451Z,0.70
2018-12-16T07:20:28.379Z,0.70
2018-12-16T07:22:57.157Z,0.70
2018-12-16T07:25:25.979Z,0.70
2018-12-16T07:27:54.806Z,0.60
2018-12-16T07:30:23.589Z,0.60
2018-12-16T07:32:52.443Z,0.50
2018-12-16T07:35:21.320Z,0.50
2018-12-16T07:37:50.919Z,0.50
2018-12-16T07:40:19.732Z,0.50
2018-12-16T07:42:48.522Z,0.60
2018-12-16T07:45:17.539Z,0.60
2018-12-16T07:47:46.497Z,0.60
2018-12-16T07:50:15.870Z,0.70
2018-12-16T07:52:44.728Z,0.80
2018-12-16T07:55:13.729Z,0.80
2018-12-16T07:57:42.585Z,0.90
2018-12-16T08:00:12.369Z,1.00
2018-12-16T08:02:41.169Z,1.00
2018-12-16T08:05:10.078Z,1.10
2018-12-16T08:07:40.443Z,1.10
2018-12-16T08:10:09.386Z,1.10
2018-12-16T08:12:38.192Z,1.10
2018-12-16T08:15:07.458Z,1.00
2018-12-16T08:17:36.263Z,1.00
2018-12-16T08:20:06.793Z,0.90
2018-12-16T08:22:35.598Z,0.90
2018-12-16T08:25:05.232Z,0.90
2018-12-16T08:27:34.178Z,1.00
2018-12-16T08:30:03.173Z,1.10
2018-12-16T08:32:31.995Z,1.10
2018-12-16T08:35:00.804Z,1.10
2018-12-16T08:37:29.614Z,1.10
2018-12-16T08:39:59.411Z,1.00
2018-12-16T08:42:28.311Z,1.00
2018-12-16T08:44:57.136Z,1.00
2018-12-16T08:47:32.921Z,1.00
2018-12-16T08:49:56.688Z,1.10
2018-12-16T08:52:25.589Z,1.10
2018-12-16T08:54:54.421Z,1.10
2018-12-16T08:57:23.284Z,1.10
2018-12-16T08:59:52.112Z,1.10
2018-12-16T09:02:20.946Z,1.10
2018-12-16T09:04:49.734Z,1.20
2018-12-16T09:07:18.563Z,1.20
2018-12-16T09:09:47.393Z,1.20
2018-12-16T09:12:16.207Z,1.20
2018-12-16T09:14:45.007Z,1.10
2018-12-16T09:17:13.799Z,1.10
2018-12-16T09:19:42.688Z,1.10
2018-12-16T09:22:11.501Z,1.20
2018-12-16T09:24:40.412Z,1.30
2018-12-16T09:27:09.217Z,1.30
2018-12-16T09:29:38.039Z,1.40
2018-12-16T09:32:06.841Z,1.40
2018-12-16T09:34:35.693Z,1.40
2018-12-16T09:37:04.557Z,1.50
2018-12-16T09:39:33.514Z,1.50
2018-12-16T09:42:02.355Z,1.60
2018-12-16T09:44:31.150Z,1.60
2018-12-16T09:46:59.989Z,1.70
2018-12-16T09:49:28.877Z,1.80
2018-12-16T09:51:57.711Z,1.70
2018-12-16T09:54:26.528Z,1.60
2018-12-16T09:56:55.337Z,1.70
2018-12-16T09:59:24.167Z,1.70
2018-12-16T10:01:53.069Z,1.70
2018-12-16T10:04:22.423Z,1.80
2018-12-16T10:06:51.313Z,1.80
2018-12-16T10:09:20.128Z,1.90
2018-12-16T10:11:48.973Z,1.80
2018-12-16T10:14:17.789Z,1.80
2018-12-16T10:16:46.705Z,1.80
2018-12-16T10:19:15.530Z,1.70
2018-12-16T10:21:44.384Z,1.70
2018-12-16T10:24:13.349Z,1.70
2018-12-16T10:26:42.788Z,1.70
2018-12-16T10:29:11.608Z,1.70
2018-12-16T10:31:40.474Z,1.70
2018-12-16T10:34:10.710Z,1.70
2018-12-16T10:36:39.544Z,1.70
2018-12-16T10:39:08.475Z,1.80
2018-12-16T10:41:39.280Z,1.90
2018-12-16T10:44:09.675Z,1.90
2018-12-16T10:46:38.477Z,1.90
2018-12-16T10:49:07.350Z,1.90
2018-12-16T10:51:37.266Z,2.00
2018-12-16T10:54:06.123Z,2.00
2018-12-16T10:56:34.960Z,1.90
2018-12-16T10:59:05.145Z,1.90
2018-12-16T11:01:34.044Z,1.90
2018-12-16T11:04:02.878Z,1.90
2018-12-16T11:06:31.702Z,2.00
2018-12-16T11:09:00.586Z,2.00
2018-12-16T11:11:30.563Z,2.10
2018-12-16T11:13:59.396Z,2.10
2018-12-16T11:16:28.214Z,2.00
2018-12-16T11:18:57.034Z,2.00
2018-12-16T11:21:25.844Z,2.00
2018-12-16T11:23:54.743Z,2.10
2018-12-16T11:26:23.603Z,2.10
2018-12-16T11:28:52.400Z,2.20
2018-12-16T11:31:21.197Z,2.20
2018-12-16T11:33:50.123Z,2.30
2018-12-16T11:36:19.937Z,2.30
2018-12-16T11:39:19.443Z,2.30
2018-12-16T11:41:48.355Z,2.30
2018-12-16T11:44:17.251Z,2.40
2018-12-16T11:46:46.063Z,2.50
2018-12-16T11:49:14.863Z,2.40
2018-12-16T11:51:44.064Z,2.40
2018-12-16T11:54:12.869Z,2.30
2018-12-16T11:56:41.677Z,2.30
2018-12-16T11:59:10.592Z,2.30
2018-12-16T12:01:39.383Z,2.30
2018-12-16T12:04:10.147Z,2.20
2018-12-16T12:06:39.431Z,2.20
2018-12-16T12:09:08.314Z,2.30
2018-12-16T12:11:38.594Z,2.30
2018-12-16T12:14:07.447Z,2.20
2018-12-16T12:16:36.349Z,2.20
2018-12-16T12:19:05.282Z,2.30
2018-12-16T12:21:34.118Z,2.40
2018-12-16T12:24:03.066Z,2.50
2018-12-16T12:26:31.883Z,2.60
2018-12-16T12:29:00.682Z,2.80
2018-12-16T12:31:29.470Z,2.80
2018-12-16T12:33:58.293Z,2.90
2018-12-16T12:36:27.122Z,2.90
2018-12-16T12:38:56.076Z,2.90
2018-12-16T12:41:25.275Z,3.00
2018-12-16T12:43:54.105Z,2.90
2018-12-16T12:46:22.892Z,2.90
2018-12-16T12:48:51.721Z,2.80
2018-12-16T12:51:20.528Z,2.80
2018-12-16T12:53:49.345Z,2.80
2018-12-16T12:56:18.141Z,2.80
2018-12-16T12:58:46.928Z,2.80
2018-12-16T13:01:15.756Z,2.70
2018-12-16T13:03:45.628Z,2.70
2018-12-16T13:06:14.424Z,2.70
2018-12-16T13:08:43.353Z,2.70
2018-12-16T13:11:12.161Z,2.70
2018-12-16T13:13:41.006Z,2.70
2018-12-16T13:16:09.822Z,2.70
2018-12-16T13:18:38.639Z,2.60
2018-12-16T13:21:07.445Z,2.60
2018-12-16T13:23:36.251Z,2.60
2018-12-16T13:26:05.483Z,2.50
2018-12-16T13:28:34.309Z,2.50
2018-12-16T13:31:03.194Z,2.50
2018-12-16T13:33:31.995Z,2.40
2018-12-16T13:36:00.787Z,2.40
2018-12-16T13:38:29.593Z,2.50
2018-12-16T13:40:58.942Z,2.40
2018-12-16T13:43:27.762Z,2.40
2018-12-16T13:45:56.686Z,2.40
2018-12-16T13:48:25.553Z,2.30
2018-12-16T13:50:56.045Z,2.20
2018-12-16T13:53:24.864Z,2.20
2018-12-16T13:55:53.798Z,2.20
2018-12-16T13:58:22.788Z,2.30
2018-12-16T14:00:51.629Z,2.20
2018-12-16T14:03:20.469Z,2.30
2018-12-16T14:05:49.304Z,2.30
2018-12-16T14:08:18.180Z,2.30
2018-12-16T14:10:47.063Z,2.30
2018-12-16T14:13:15.869Z,2.30
2018-12-16T14:15:49.145Z,2.30
2018-12-16T14:18:15.547Z,2.30
2018-12-16T14:20:44.437Z,2.30
2018-12-16T14:23:13.795Z,2.20
2018-12-16T14:25:48.012Z,2.20
2018-12-16T14:28:13.471Z,2.10
2018-12-16T14:30:42.370Z,2.00
2018-12-16T14:33:11.195Z,2.00
2018-12-16T14:35:40.211Z,2.10
2018-12-16T14:38:09.727Z,2.20
2018-12-16T14:40:38.730Z,2.20
2018-12-16T14:43:07.758Z,2.30
2018-12-16T14:45:36.600Z,2.30
2018-12-16T14:48:05.497Z,2.30
2018-12-16T14:50:34.305Z,2.40
2018-12-16T14:53:03.101Z,2.40
2018-12-16T14:55:32.006Z,2.40
2018-12-16T14:58:00.847Z,2.30
2018-12-16T15:00:29.658Z,2.30
2018-12-16T15:02:58.569Z,2.30
2018-12-16T15:05:27.375Z,2.20
2018-12-16T15:07:56.258Z,2.20
2018-12-16T15:10:25.122Z,2.20
2018-12-16T15:12:54.015Z,2.20
2018-12-16T15:15:22.829Z,2.20
2018-12-16T15:17:51.649Z,2.20
2018-12-16T15:20:20.442Z,2.20
2018-12-16T15:22:49.252Z,2.20
2018-12-16T15:25:18.085Z,2.20
2018-12-16T15:27:46.889Z,2.20
2018-12-16T15:30:15.731Z,2.20
2018-12-16T15:32:44.577Z,2.20
2018-12-16T15:35:13.551Z,2.20
2018-12-16T15:37:42.534Z,2.20
2018-12-16T15:40:11.347Z,2.20
2018-12-16T15:42:40.165Z,2.10
2018-12-16T15:45:10.253Z,2.10
2018-12-16T15:47:39.077Z,2.00
2018-12-16T15:50:09.625Z,2.10
2018-12-16T15:52:38.679Z,2.00
2018-12-16T15:55:09.726Z,2.00
2018-12-16T15:57:40.504Z,2.00
2018-12-16T16:00:10.005Z,2.00
2018-12-16T16:02:39.000Z,2.00
2018-12-16T16:05:08.027Z,1.90
2018-12-16T16:07:36.809Z,1.90
2018-12-16T16:10:07.585Z,1.90
2018-12-16T16:12:36.463Z,1.90
2018-12-16T16:15:05.504Z,2.00
2018-12-16T16:17:35.437Z,2.00
2018-12-16T16:20:04.660Z,2.10
2018-12-16T16:22:33.441Z,2.10
2018-12-16T16:25:02.264Z,2.20
2018-12-16T16:27:31.245Z,2.20
2018-12-16T16:30:00.069Z,2.20
2018-12-16T16:32:28.950Z,2.30
2018-12-16T16:34:57.770Z,2.30
2018-12-16T16:37:26.666Z,2.20
2018-12-16T16:39:55.500Z,2.30
2018-12-16T16:42:24.294Z,2.40
2018-12-16T16:44:53.203Z,2.50
2018-12-16T16:47:22.092Z,2.50
2018-12-16T16:49:50.925Z,2.50
2018-12-16T16:52:19.734Z,2.50
2018-12-16T16:54:48.548Z,2.60
2018-12-16T16:57:17.384Z,2.60
2018-12-16T16:59:46.186Z,2.60
2018-12-16T17:02:15.121Z,2.60
2018-12-16T17:04:43.936Z,2.60
2018-12-16T17:07:12.854Z,2.60
2018-12-16T17:09:41.694Z,2.60
2018-12-16T17:12:10.552Z,2.60
2018-12-16T17:14:39.459Z,2.60
2018-12-16T17:17:08.262Z,2.60
2018-12-16T17:19:37.092Z,2.60
2018-12-16T17:22:06.375Z,2.60
2018-12-16T17:24:35.257Z,2.60
2018-12-16T17:27:04.231Z,2.60
2018-12-16T17:29:33.075Z,2.70
2018-12-16T17:32:01.986Z,2.70
2018-12-16T17:34:30.917Z,2.70
2018-12-16T17:36:59.813Z,2.70
2018-12-16T17:39:28.637Z,2.70
2018-12-16T17:41:57.499Z,2.70
2018-12-16T17:44:26.400Z,2.70
2018-12-16T17:46:55.200Z,2.70
2018-12-16T17:49:24.125Z,2.80
2018-12-16T17:51:52.938Z,2.70
2018-12-16T17:54:21.849Z,2.80
2018-12-16T17:56:50.653Z,2.90
2018-12-16T17:59:19.496Z,2.90
2018-12-16T18:01:48.769Z,2.90
2018-12-16T18:04:17.737Z,2.90
2018-12-16T18:06:46.657Z,2.90
2018-12-16T18:09:15.886Z,2.90
2018-12-16T18:11:44.722Z,2.90
2018-12-16T18:14:13.691Z,2.80
2018-12-16T18:16:42.577Z,2.80
2018-12-16T18:19:11.395Z,2.80
2018-12-16T18:21:40.209Z,2.80
2018-12-16T18:24:09.094Z,2.80
2018-12-16T18:26:43.823Z,2.80
2018-12-16T18:29:08.795Z,2.90
2018-12-16T18:31:37.694Z,2.80
2018-12-16T18:34:06.631Z,2.80
2018-12-16T18:36:35.499Z,2.80
2018-12-16T18:39:08.559Z,2.80
2018-12-16T18:41:37.693Z,2.80
2018-12-16T18:44:06.901Z,2.80
2018-12-16T18:46:35.722Z,2.70
2018-12-16T18:49:04.621Z,2.70
2018-12-16T18:51:33.446Z,2.70
2018-12-16T18:54:02.335Z,2.70
2018-12-16T18:56:31.205Z,2.80
2018-12-16T18:59:00.105Z,2.80
2018-12-16T19:01:28.913Z,2.80
2018-12-16T19:03:57.809Z,2.80
2018-12-16T19:06:26.625Z,2.80
2018-12-16T19:08:55.443Z,2.70
2018-12-16T19:11:24.349Z,2.70
2018-12-16T19:13:53.221Z,2.70
2018-12-16T19:16:22.038Z,2.70
2018-12-16T19:18:51.643Z,2.70
2018-12-16T19:21:20.610Z,2.70
2018-12-16T19:23:49.415Z,2.70
2018-12-16T19:26:18.219Z,2.70
2018-12-16T19:28:48.037Z,2.80
2018-12-16T19:31:16.892Z,2.70
2018-12-16T19:33:45.862Z,2.80
2018-12-16T19:36:14.735Z,2.70
2018-12-16T19:38:43.719Z,2.70
2018-12-16T19:41:12.569Z,2.80
2018-12-16T19:43:41.425Z,2.80
2018-12-16T19:46:10.393Z,2.80
2018-12-16T19:48:39.265Z,2.80
2018-12-16T19:51:08.195Z,2.90
2018-12-16T19:53:37.015Z,2.90
2018-12-16T19:56:05.813Z,2.90
2018-12-16T19:58:37.269Z,3.00
2018-12-16T20:01:06.180Z,3.00
2018-12-16T20:03:37.018Z,3.00
2018-12-16T20:06:11.068Z,3.00
2018-12-16T20:08:39.887Z,3.00
2018-12-16T20:11:08.714Z,3.00
2018-12-16T20:13:37.475Z,3.00
2018-12-16T20:16:06.330Z,3.00
2018-12-16T20:18:37.113Z,3.00
2018-12-16T20:21:05.935Z,2.90
2018-12-16T20:23:34.721Z,2.90
2018-12-16T20:26:03.633Z,2.90
2018-12-16T20:28:32.422Z,2.90
2018-12-16T20:31:01.227Z,2.90
2018-12-16T20:33:30.136Z,2.90
2018-12-16T20:35:58.965Z,2.90
2018-12-16T20:38:27.766Z,3.00
2018-12-16T20:40:56.650Z,2.90
2018-12-16T20:43:25.446Z,2.90
2018-12-16T20:45:54.351Z,2.90
2018-12-16T20:48:23.158Z,2.90
2018-12-16T20:50:52.069Z,2.90
2018-12-16T20:53:20.881Z,2.80
2018-12-16T20:55:49.706Z,2.80
2018-12-16T20:58:18.612Z,2.80
2018-12-16T21:00:47.482Z,2.80
2018-12-16T21:03:16.463Z,2.90
2018-12-16T21:05:45.256Z,2.80
2018-12-16T21:08:14.432Z,2.80
2018-12-16T21:10:43.224Z,2.80
2018-12-16T21:13:17.340Z,2.80
2018-12-16T21:15:51.400Z,2.90
2018-12-16T21:18:28.136Z,2.90
2018-12-16T21:20:57.038Z,2.90
2018-12-16T21:23:25.838Z,2.90
2018-12-16T21:25:54.675Z,3.00
2018-12-16T21:28:23.560Z,3.00
2018-12-16T21:30:52.514Z,3.00
2018-12-16T21:33:21.465Z,3.00
2018-12-16T21:35:50.302Z,3.00
2018-12-16T21:38:19.197Z,3.00
2018-12-16T21:40:48.082Z,3.00
2018-12-16T21:43:16.920Z,3.00
2018-12-16T21:45:45.734Z,3.00
2018-12-16T21:48:14.560Z,3.00
2018-12-16T21:50:43.472Z,3.00
2018-12-16T21:53:12.360Z,3.00
2018-12-16T21:55:41.230Z,3.00
2018-12-16T21:58:10.040Z,2.90
2018-12-16T22:00:38.858Z,2.90
2018-12-16T22:03:07.796Z,2.90
2018-12-16T22:05:36.916Z,2.90
2018-12-16T22:08:05.716Z,2.90
2018-12-16T22:10:34.524Z,2.80
2018-12-16T22:13:03.404Z,2.80
2018-12-16T22:15:32.576Z,2.90
2018-12-16T22:18:01.426Z,2.90
2018-12-16T22:20:30.241Z,2.90
2018-12-16T22:22:59.116Z,2.90
2018-12-16T22:25:27.952Z,2.90
2018-12-16T22:27:57.765Z,2.90
2018-12-16T22:30:26.672Z,3.00
2018-12-16T22:32:55.466Z,3.00
2018-12-16T22:35:24.366Z,3.00
2018-12-16T22:37:53.169Z,3.00
2018-12-16T22:40:22.296Z,3.00
2018-12-16T22:42:51.136Z,3.00
2018-12-16T22:45:21.188Z,3.10
2018-12-16T22:47:50.090Z,3.10
2018-12-16T22:50:18.909Z,3.10
2018-12-16T22:52:47.724Z,3.00
2018-12-16T22:55:16.655Z,3.00
2018-12-16T22:57:47.182Z,3.00
2018-12-16T23:00:17.255Z,3.00
2018-12-16T23:02:48.008Z,3.00
2018-12-16T23:05:16.894Z,3.00
2018-12-16T23:07:45.797Z,2.90
2018-12-16T23:10:14.750Z,2.90
2018-12-16T23:12:44.608Z,2.90
2018-12-16T23:15:13.520Z,2.90
2018-12-16T23:17:42.337Z,2.90
2018-12-16T23:20:16.578Z,3.00
2018-12-16T23:22:45.404Z,3.00
2018-12-16T23:25:14.296Z,3.00
2018-12-16T23:27:43.170Z,3.00
2018-12-16T23:30:12.158Z,3.10
2018-12-16T23:32:40.970Z,3.10
2018-12-16T23:35:09.800Z,3.10
2018-12-16T23:37:38.608Z,3.10
2018-12-16T23:40:07.614Z,3.10
2018-12-16T23:42:36.466Z,3.10
2018-12-16T23:45:06.792Z,3.00
2018-12-16T23:47:35.722Z,3.10
2018-12-16T23:50:06.196Z,3.00
2018-12-16T23:52:35.063Z,3.10
2018-12-16T23:55:04.176Z,3.10
2018-12-16T23:57:33.236Z,3.10
